Time;durP1;ratioP1;P1;durP2;ratioP2;P2;SDS_P1;SDS_P2;PMS_P1;PMS_P2;Temp;Humidity;BMP_temperature;BMP_pressure;BME280_temperature;BME280_humidity;BME280_pressure;Samples;Min_cycle;Max_cycle;Signal;HPM_P1;HPM_P2
2022/02/11 00:00:18;;;;;;;17.83;11.52;;;;;;;7.99;100.00;96722.41;4975984;28;20092;-47
2022/02/11 00:05:52;;;;;;;16.35;12.73;;;;;;;7.61;100.00;96717.56;4989232;28;20073;-48
2022/02/11 00:08:21;;;;;;;17.67;12.43;;;;;;;8.07;100.00;96716.53;4998107;28;20076;-46
2022/02/11 00:10:49;;;;;;;18.58;12.98;;;;;;;8.20;100.00;96717.25;4991752;28;20093;-50
2022/02/11 00:13:20;;;;;;;18.83;12.98;;;;;;;8.27;100.00;96705.28;4978459;28;20108;-52
2022/02/11 00:15:52;;;;;;;17.10;13.23;;;;;;;8.27;100.00;96709.69;4981606;28;20066;-57
2022/02/11 00:18:21;;;;;;;18.65;13.02;;;;;;;7.96;100.00;96711.31;4984445;28;20089;-50
2022/02/11 00:20:51;;;;;;;18.30;12.23;;;;;;;8.15;100.00;96708.88;5001942;28;20413;-51
2022/02/11 00:23:21;;;;;;;19.23;12.63;;;;;;;8.40;100.00;96696.44;4999128;28;20062;-49
2022/02/11 00:25:54;;;;;;;16.45;12.73;;;;;;;8.31;100.00;96692.72;5000185;28;20065;-47
2022/02/11 00:33:59;;;;;;;19.17;13.18;;;;;;;8.24;100.00;96678.41;5001411;28;20081;-53
2022/02/11 00:36:33;;;;;;;21.42;14.23;;;;;;;8.21;100.00;96687.38;5000948;28;20469;-52
2022/02/11 00:39:22;;;;;;;18.88;13.00;;;;;;;8.08;100.00;96679.63;4999430;28;20081;-48
2022/02/11 01:04:12;;;;;;;16.13;10.85;;;;;;;8.23;100.00;96664.44;4980089;28;20074;-51
2022/02/11 01:06:41;;;;;;;19.60;11.00;;;;;;;8.11;100.00;96662.81;4976246;28;20078;-48
2022/02/11 01:09:13;;;;;;;14.82;10.45;;;;;;;8.27;100.00;96667.66;4984082;28;20087;-48
2022/02/11 01:11:47;;;;;;;14.07;10.43;;;;;;;7.94;100.00;96661.53;4999282;28;20073;-51
2022/02/11 01:14:15;;;;;;;16.77;10.90;;;;;;;7.78;100.00;96654.06;4998261;28;20184;-52
2022/02/11 01:16:50;;;;;;;16.13;9.90;;;;;;;7.90;100.00;96647.00;5000841;28;20791;-49
2022/02/11 01:19:26;;;;;;;16.55;10.40;;;;;;;7.78;100.00;96645.38;5005793;28;20056;-50
2022/02/11 01:22:03;;;;;;;15.23;9.60;;;;;;;7.83;100.00;96638.78;5004435;28;20073;-53
2022/02/11 01:24:56;;;;;;;15.93;9.80;;;;;;;7.90;100.00;96633.88;5006324;28;20080;-47
2022/02/11 01:27:30;;;;;;;12.13;9.45;;;;;;;7.89;100.00;96629.59;5003941;28;20084;-55
2022/02/11 01:30:35;;;;;;;14.43;9.60;;;;;;;7.80;100.00;96623.25;5001860;28;20078;-54
2022/02/11 01:33:28;;;;;;;13.85;9.32;;;;;;;8.00;100.00;96623.47;5005135;28;20543;-53
2022/02/11 01:36:06;;;;;;;12.75;8.07;;;;;;;7.96;100.00;96633.38;5002641;28;20070;-48
2022/02/11 01:38:46;;;;;;;15.32;8.60;;;;;;;8.05;100.00;96632.63;4986997;28;20085;-50
2022/02/11 01:50:17;;;;;;;11.43;8.30;;;;;;;8.12;100.00;96611.97;4981963;28;20087;-47
2022/02/11 01:52:56;;;;;;;12.18;8.30;;;;;;;8.15;100.00;96608.22;5001743;28;20073;-49
2022/02/11 01:55:51;;;;;;;13.85;8.68;;;;;;;8.08;100.00;96611.34;4995073;28;20480;-54
2022/02/11 02:01:29;;;;;;;13.90;8.27;;;;;;;8.24;100.00;96610.94;4983755;28;20069;-53
2022/02/11 02:15:36;;;;;;;10.98;8.43;;;;;;;8.24;100.00;96584.66;4986814;28;20433;-55
2022/02/11 02:26:55;;;;;;;14.02;9.10;;;;;;;8.04;100.00;96586.31;4976418;28;20536;-46
2022/02/11 02:32:54;;;;;;;12.02;8.85;;;;;;;8.21;100.00;96569.16;4956041;28;20577;-47
2022/02/11 02:35:40;;;;;;;15.85;9.93;;;;;;;8.09;100.00;96575.44;4987381;28;20532;-53
2022/02/11 02:57:47;;;;;;;17.63;9.82;;;;;;;7.97;100.00;96558.88;4981227;28;20210;-53
2022/02/11 03:00:53;;;;;;;17.15;10.30;;;;;;;7.83;100.00;96557.38;5008192;28;20076;-59
2022/02/11 03:34:34;;;;;;;14.25;10.10;;;;;;;7.82;100.00;96563.59;4983749;28;20062;-49
2022/02/11 03:34:50;;;;;;;18.02;9.68;;;;;;;7.87;100.00;96557.97;4988952;28;20449;-50
2022/02/11 03:51:30;;;;;;;15.15;9.10;;;;;;;7.97;100.00;96566.75;5009160;28;20077;-52
2022/02/11 03:54:27;;;;;;;13.40;9.25;;;;;;;7.90;100.00;96570.84;5006912;28;20069;-46
2022/02/11 03:57:30;;;;;;;12.68;8.30;;;;;;;8.12;100.00;96572.56;4979777;28;20485;-49
2022/02/11 04:22:58;;;;;;;12.63;7.00;;;;;;;7.96;100.00;96603.66;5009815;28;20108;-49
2022/02/11 04:56:21;;;;;;;8.10;5.22;;;;;;;7.88;100.00;96611.31;4991993;28;20481;-44
2022/02/11 05:01:40;;;;;;;6.15;4.85;;;;;;;7.82;100.00;96604.78;5007020;28;20592;-50
2022/02/11 05:04:09;;;;;;;8.05;4.40;;;;;;;7.70;100.00;96611.00;5002202;28;20620;-49
2022/02/11 05:06:37;;;;;;;7.18;4.20;;;;;;;7.66;100.00;96613.03;4984517;28;20070;-51
2022/02/11 05:09:06;;;;;;;5.82;4.28;;;;;;;7.53;100.00;96614.97;4984824;28;20116;-55
2022/02/11 05:11:34;;;;;;;7.07;4.55;;;;;;;7.65;100.00;96614.00;4989433;28;20062;-51
2022/02/11 05:14:05;;;;;;;5.28;4.60;;;;;;;7.77;100.00;96613.00;4985904;28;20081;-47
2022/02/11 05:16:34;;;;;;;6.25;4.13;;;;;;;7.68;100.00;96616.38;4984909;28;20077;-46
2022/02/11 05:19:03;;;;;;;5.72;4.30;;;;;;;7.53;100.00;96609.72;4987432;28;20090;-55
2022/02/11 05:21:31;;;;;;;5.97;4.78;;;;;;;7.67;100.00;96622.56;4995303;28;20085;-49
2022/02/11 05:24:00;;;;;;;6.97;4.50;;;;;;;7.69;100.00;96639.03;5006873;28;20096;-54
2022/02/11 05:26:30;;;;;;;9.70;7.00;;;;;;;7.38;100.00;96649.34;5006581;28;20061;-53
2022/02/11 05:28:58;;;;;;;9.00;6.28;;;;;;;7.25;100.00;96653.88;5009883;28;20080;-50
2022/02/11 05:31:28;;;;;;;11.30;8.63;;;;;;;7.15;100.00;96660.78;5009264;28;20076;-46
2022/02/11 05:33:56;;;;;;;15.27;9.68;;;;;;;7.14;100.00;96674.84;5006829;28;20084;-51
2022/02/11 05:36:25;;;;;;;7.35;6.22;;;;;;;6.95;100.00;96679.81;5010968;28;20080;-45
2022/02/11 05:38:53;;;;;;;13.07;9.02;;;;;;;6.65;100.00;96683.84;5014778;28;20085;-49
2022/02/11 05:41:22;;;;;;;12.23;7.47;;;;;;;6.41;100.00;96699.59;5008704;28;20072;-51
2022/02/11 05:43:50;;;;;;;14.48;9.52;;;;;;;6.29;100.00;96700.47;5008981;28;20108;-49
2022/02/11 05:46:20;;;;;;;16.58;10.80;;;;;;;6.29;100.00;96706.53;5007427;28;20607;-46
2022/02/11 05:48:50;;;;;;;17.35;10.02;;;;;;;6.31;100.00;96709.91;5005979;28;20070;-47
2022/02/11 05:51:18;;;;;;;14.53;9.50;;;;;;;6.14;100.00;96713.75;5009586;28;20090;-53
2022/02/11 05:53:47;;;;;;;16.25;11.18;;;;;;;6.19;100.00;96713.41;4985595;28;20643;-52
2022/02/11 05:56:16;;;;;;;16.13;8.10;;;;;;;5.90;100.00;96726.78;5002484;28;20061;-54
2022/02/11 05:58:45;;;;;;;12.23;7.45;;;;;;;5.88;100.00;96725.19;4995062;28;20074;-54
2022/02/11 06:01:13;;;;;;;9.70;6.75;;;;;;;5.81;100.00;96722.19;4985016;28;20456;-48
2022/02/11 06:03:42;;;;;;;12.10;8.55;;;;;;;5.90;100.00;96732.00;4993890;28;20136;-46
2022/02/11 06:06:12;;;;;;;9.48;6.25;;;;;;;5.80;100.00;96735.38;5003324;28;20086;-51
2022/02/11 06:08:40;;;;;;;9.07;6.28;;;;;;;5.84;100.00;96729.00;4985353;28;20078;-52
2022/02/11 06:11:09;;;;;;;8.18;5.70;;;;;;;5.72;100.00;96735.94;4991592;28;20525;-52
2022/02/11 06:13:37;;;;;;;9.10;6.63;;;;;;;5.75;100.00;96733.09;4985733;28;20073;-51
2022/02/11 06:16:05;;;;;;;13.40;8.27;;;;;;;5.76;100.00;96736.56;4990526;28;20065;-51
2022/02/11 06:18:34;;;;;;;9.45;5.70;;;;;;;5.69;100.00;96751.84;5006201;28;20536;-57
2022/02/11 06:21:02;;;;;;;12.57;7.68;;;;;;;5.77;100.00;96757.38;5016126;28;20808;-51
2022/02/11 06:23:32;;;;;;;6.55;5.80;;;;;;;5.64;100.00;96754.78;5011756;28;20072;-52
2022/02/11 06:26:00;;;;;;;8.00;5.93;;;;;;;5.57;100.00;96769.22;5012176;28;20073;-54
2022/02/11 06:28:29;;;;;;;7.80;5.05;;;;;;;5.67;100.00;96777.25;5000089;28;20473;-53
2022/02/11 06:30:58;;;;;;;5.60;4.45;;;;;;;5.61;100.00;96782.91;4989027;28;20456;-55
2022/02/11 06:33:28;;;;;;;6.90;5.15;;;;;;;5.55;100.00;96793.81;4993031;28;20101;-52
2022/02/11 06:35:57;;;;;;;5.93;5.10;;;;;;;5.61;100.00;96798.63;4988347;28;20098;-53
2022/02/11 06:38:25;;;;;;;5.72;4.75;;;;;;;5.45;100.00;96806.69;4984001;28;20061;-53
2022/02/11 06:40:55;;;;;;;7.60;5.32;;;;;;;5.43;100.00;96812.00;4984338;28;20066;-48
2022/02/11 06:43:23;;;;;;;6.63;4.53;;;;;;;5.39;100.00;96826.25;4985491;28;20070;-47
2022/02/11 06:45:52;;;;;;;5.43;4.93;;;;;;;5.46;100.00;96839.75;4991958;28;20460;-49
2022/02/11 06:48:23;;;;;;;5.00;4.45;;;;;;;5.42;100.00;96822.59;5003135;28;20544;-47
2022/02/11 06:50:52;;;;;;;6.82;4.45;;;;;;;5.40;100.00;96834.91;4982005;28;21387;-51
2022/02/11 06:53:20;;;;;;;6.82;5.18;;;;;;;5.41;100.00;96829.59;4980863;28;20074;-53
2022/02/11 06:55:49;;;;;;;6.40;4.80;;;;;;;5.48;100.00;96845.72;4983880;28;20097;-51
2022/02/11 06:58:20;;;;;;;5.72;4.95;;;;;;;5.52;100.00;96862.88;4986291;28;20081;-53
2022/02/11 07:00:50;;;;;;;4.65;4.10;;;;;;;5.39;100.00;96857.63;4985317;28;20065;-53
2022/02/11 07:03:19;;;;;;;4.68;4.25;;;;;;;5.41;100.00;96858.38;5018535;28;20081;-54
2022/02/11 07:05:47;;;;;;;5.55;4.97;;;;;;;5.39;100.00;96889.00;4964131;28;20721;-48
2022/02/11 07:08:16;;;;;;;5.72;4.88;;;;;;;5.59;100.00;96892.91;4964939;28;20070;-48
2022/02/11 07:10:50;;;;;;;5.55;4.82;;;;;;;5.40;100.00;96902.91;4965139;28;20070;-56
2022/02/11 07:13:20;;;;;;;6.07;5.47;;;;;;;5.47;100.00;96918.13;4968609;28;20082;-49
2022/02/11 07:15:48;;;;;;;5.70;4.47;;;;;;;5.38;100.00;96925.75;4967368;28;20065;-49
2022/02/11 07:18:16;;;;;;;6.80;5.85;;;;;;;5.49;100.00;96928.47;4964897;28;20087;-50
2022/02/11 07:20:45;;;;;;;7.03;5.25;;;;;;;5.58;100.00;96937.50;4972205;28;20073;-53
2022/02/11 07:23:13;;;;;;;7.57;5.00;;;;;;;5.30;100.00;96943.69;4965089;28;20074;-52
2022/02/11 07:25:43;;;;;;;10.95;5.88;;;;;;;5.46;100.00;96957.44;4963112;28;20082;-54
2022/02/11 07:28:12;;;;;;;6.63;5.45;;;;;;;5.44;100.00;96967.19;4966217;28;20070;-53
2022/02/11 07:30:41;;;;;;;5.82;5.22;;;;;;;5.40;100.00;96982.25;4967633;28;20082;-47
2022/02/11 07:33:10;;;;;;;6.15;5.20;;;;;;;5.45;100.00;96981.94;4970714;28;20078;-56
2022/02/11 07:35:38;;;;;;;6.63;5.63;;;;;;;5.53;100.00;96989.28;4964360;28;20078;-52
2022/02/11 07:38:07;;;;;;;8.70;6.55;;;;;;;5.54;100.00;96994.41;4965111;28;20527;-48
2022/02/11 07:40:38;;;;;;;6.57;5.13;;;;;;;5.69;100.00;97003.03;4963548;28;20455;-46
2022/02/11 07:43:07;;;;;;;6.10;5.07;;;;;;;5.46;100.00;97015.81;4968572;28;20465;-55
2022/02/11 07:45:56;;;;;;;8.63;4.80;;;;;;;5.46;100.00;97021.06;4992298;28;20057;-53
2022/02/11 07:48:25;;;;;;;5.70;4.40;;;;;;;5.26;100.00;97020.66;4989859;28;20081;-54
2022/02/11 07:50:53;;;;;;;5.07;4.30;;;;;;;5.23;100.00;97032.19;4994449;28;20108;-54
2022/02/11 07:53:21;;;;;;;3.90;3.60;;;;;;;5.05;100.00;97047.22;4994434;28;20173;-48
2022/02/11 07:55:52;;;;;;;4.85;4.45;;;;;;;5.18;100.00;97036.84;4989219;28;20456;-47
2022/02/11 07:58:24;;;;;;;4.45;4.15;;;;;;;5.04;100.00;97052.56;4988384;28;20477;-51
2022/02/11 08:00:57;;;;;;;4.00;3.70;;;;;;;4.99;100.00;97063.31;4987064;28;20062;-57
2022/02/11 08:03:26;;;;;;;4.55;4.15;;;;;;;5.06;100.00;97066.34;4991252;28;20509;-55
2022/02/11 08:05:56;;;;;;;4.63;4.13;;;;;;;4.80;100.00;97075.81;4995943;28;20078;-51
2022/02/11 08:08:27;;;;;;;4.03;3.72;;;;;;;4.84;100.00;97092.97;4987513;28;20065;-54
2022/02/11 08:10:57;;;;;;;4.13;3.83;;;;;;;4.91;100.00;97089.91;4970980;28;20077;-51
2022/02/11 08:13:25;;;;;;;3.92;3.63;;;;;;;4.86;100.00;97104.19;4968155;28;20069;-49
2022/02/11 08:15:55;;;;;;;4.32;4.03;;;;;;;5.09;100.00;97121.06;4967717;28;20074;-52
2022/02/11 08:18:24;;;;;;;3.97;3.65;;;;;;;4.82;100.00;97118.34;4979657;28;20084;-53
2022/02/11 08:21:12;;;;;;;4.72;4.32;;;;;;;4.92;100.00;97127.31;4993491;28;20088;-54
2022/02/11 08:23:40;;;;;;;4.65;4.25;;;;;;;4.95;100.00;97141.03;5010336;28;20046;-50
2022/02/11 08:26:09;;;;;;;4.30;3.95;;;;;;;4.77;100.00;97152.59;4986022;28;20084;-52
2022/02/11 08:28:40;;;;;;;3.90;3.60;;;;;;;4.89;100.00;97159.72;4986736;28;20061;-57
2022/02/11 08:31:09;;;;;;;4.32;3.92;;;;;;;4.88;100.00;97175.47;4992814;28;20081;-52
2022/02/11 08:33:39;;;;;;;3.95;3.65;;;;;;;4.98;100.00;97182.69;4987624;28;20073;-58
2022/02/11 08:36:07;;;;;;;3.90;3.60;;;;;;;5.05;100.00;97184.94;4991837;28;20074;-48
2022/02/11 08:38:36;;;;;;;3.85;3.55;;;;;;;4.84;100.00;97202.72;4989008;28;20066;-54
2022/02/11 08:41:05;;;;;;;4.70;4.18;;;;;;;4.88;100.00;97209.44;4987420;28;20093;-55
2022/02/11 08:43:34;;;;;;;4.35;3.95;;;;;;;4.99;100.00;97215.75;4988070;28;20069;-49
2022/02/11 08:46:03;;;;;;;3.95;3.65;;;;;;;5.21;100.00;97225.75;4985139;28;20070;-52
2022/02/11 08:48:32;;;;;;;4.70;4.30;;;;;;;4.99;100.00;97220.97;4993525;28;20445;-49
2022/02/11 08:51:02;;;;;;;4.35;3.95;;;;;;;5.06;100.00;97228.41;4990445;28;20094;-48
2022/02/11 08:53:33;;;;;;;4.70;4.30;;;;;;;5.30;100.00;97232.19;4989466;28;20077;-54
2022/02/11 08:56:03;;;;;;;3.97;3.67;;;;;;;5.14;100.00;97253.19;4987104;28;20073;-52
2022/02/11 08:58:32;;;;;;;4.63;4.15;;;;;;;5.30;100.00;97247.91;4991407;28;20077;-52
2022/02/11 09:01:00;;;;;;;4.45;4.00;;;;;;;5.17;100.00;97254.78;4983337;28;20062;-48
2022/02/11 09:03:29;;;;;;;5.05;3.55;;;;;;;5.24;100.00;97256.09;5001732;28;20077;-52
2022/02/11 09:05:57;;;;;;;3.72;3.47;;;;;;;5.17;100.00;97260.03;4993522;28;20552;-50
2022/02/11 09:08:27;;;;;;;3.75;3.45;;;;;;;5.30;100.00;97270.56;4985023;28;20066;-48
2022/02/11 09:10:55;;;;;;;4.15;3.83;;;;;;;5.47;100.00;97275.63;4991531;28;20061;-55
2022/02/11 09:13:26;;;;;;;4.35;3.85;;;;;;;5.37;100.00;97277.97;4987729;28;20383;-47
2022/02/11 09:15:54;;;;;;;3.95;3.65;;;;;;;4.97;100.00;97290.78;4989429;28;20038;-56
2022/02/11 09:18:23;;;;;;;3.50;3.30;;;;;;;5.15;100.00;97294.09;4990537;28;20078;-51
2022/02/11 09:20:51;;;;;;;4.28;3.95;;;;;;;5.21;100.00;97293.72;4983105;28;20283;-52
2022/02/11 09:23:23;;;;;;;3.78;3.47;;;;;;;5.20;100.00;97302.50;4994510;28;20061;-47
2022/02/11 09:25:53;;;;;;;4.25;3.90;;;;;;;5.12;100.00;97302.09;4986869;28;20069;-56
2022/02/11 09:28:21;;;;;;;4.00;3.70;;;;;;;5.13;100.00;97311.66;4983846;28;20065;-48
2022/02/11 09:30:50;;;;;;;4.35;3.95;;;;;;;5.14;100.00;97309.88;4988312;28;20058;-58
2022/02/11 09:33:18;;;;;;;3.80;3.50;;;;;;;5.09;100.00;97319.75;4998253;28;20081;-52
2022/02/11 09:35:49;;;;;;;4.82;4.43;;;;;;;5.26;100.00;97324.00;4991876;28;20057;-55
2022/02/11 09:38:18;;;;;;;3.92;3.63;;;;;;;5.18;100.00;97327.06;4987378;28;20097;-49
2022/02/11 09:40:50;;;;;;;4.07;3.67;;;;;;;5.66;100.00;97330.31;4992554;28;20452;-57
2022/02/11 09:43:21;;;;;;;4.10;3.80;;;;;;;5.82;100.00;97336.28;4988026;28;20516;-55
2022/02/11 09:45:50;;;;;;;4.47;4.05;;;;;;;6.20;100.00;97334.91;4989761;28;20496;-53
2022/02/11 09:48:17;;;;;;;4.18;3.75;;;;;;;6.01;100.00;97343.03;4988897;28;20061;-50
2022/02/11 09:50:45;;;;;;;4.10;3.53;;;;;;;5.88;100.00;97333.31;4990392;28;20062;-47
2022/02/11 09:53:18;;;;;;;3.60;3.30;;;;;;;6.02;100.00;97357.81;4986474;28;20070;-52
2022/02/11 09:55:46;;;;;;;3.70;3.40;;;;;;;6.24;100.00;97354.72;4989157;28;20544;-55
2022/02/11 09:58:21;;;;;;;4.90;4.38;;;;;;;6.59;100.00;97363.81;4987100;28;20084;-51
2022/02/11 10:00:52;;;;;;;5.78;3.25;;;;;;;6.26;100.00;97361.53;4994257;28;20069;-51
2022/02/11 10:03:21;;;;;;;3.30;3.10;;;;;;;5.99;100.00;97371.94;4987670;28;20081;-52
2022/02/11 10:05:49;;;;;;;3.20;3.00;;;;;;;5.91;100.00;97367.13;4992983;28;20529;-53
2022/02/11 10:08:18;;;;;;;3.67;3.20;;;;;;;5.66;100.00;97388.72;4970836;28;20074;-55
2022/02/11 10:10:52;;;;;;;3.50;3.20;;;;;;;5.96;100.00;97379.16;4966643;28;20101;-52
2022/02/11 10:13:25;;;;;;;7.32;3.45;;;;;;;5.79;100.00;97399.28;4974163;28;20066;-51
2022/02/11 10:15:56;;;;;;;3.10;2.90;;;;;;;5.72;100.00;97406.66;4984197;28;20065;-54
2022/02/11 10:18:28;;;;;;;3.70;3.40;;;;;;;5.69;100.00;97398.16;4971168;28;20077;-54
2022/02/11 10:20:56;;;;;;;;;;;;;;;5.77;100.00;97418.63;4968284;28;20066;-50
2022/02/11 10:23:26;;;;;;;3.63;3.13;;;;;;;5.32;100.00;97418.63;4960989;28;19957;-54
2022/02/11 10:26:00;;;;;;;3.20;3.00;;;;;;;5.46;100.00;97415.19;4964056;28;20066;-57
2022/02/11 10:28:35;;;;;;;3.92;3.53;;;;;;;5.28;100.00;97424.97;4970102;28;20078;-55
2022/02/11 10:31:15;;;;;;;3.47;3.20;;;;;;;5.27;100.00;97432.91;4962901;28;20097;-52
2022/02/11 10:33:55;;;;;;;4.20;3.25;;;;;;;5.28;100.00;97424.13;4962969;28;20571;-52
2022/02/11 10:36:25;;;;;;;3.33;3.13;;;;;;;5.22;100.00;97426.16;4968755;28;20078;-50
2022/02/11 10:39:15;;;;;;;3.72;3.45;;;;;;;5.40;100.00;97439.97;4977391;28;20662;-50
2022/02/11 10:41:46;;;;;;;3.60;3.38;;;;;;;5.25;100.00;97430.38;4967708;28;20058;-55
2022/02/11 10:44:17;;;;;;;4.68;3.72;;;;;;;5.41;100.00;97431.19;4967467;28;20074;-52
2022/02/11 10:46:52;;;;;;;4.35;4.05;;;;;;;5.16;100.00;97425.66;4964288;28;20658;-49
2022/02/11 10:49:31;;;;;;;6.07;3.55;;;;;;;5.70;100.00;97426.00;4964932;28;20070;-50
2022/02/11 10:52:11;;;;;;;3.90;3.60;;;;;;;5.92;100.00;97423.84;4970671;28;20073;-49
2022/02/11 10:54:40;;;;;;;3.92;3.63;;;;;;;6.01;100.00;97430.28;4975904;28;20551;-49
2022/02/11 10:57:10;;;;;;;4.10;3.70;;;;;;;6.20;100.00;97423.94;4967505;28;20093;-53
2022/02/11 10:59:43;;;;;;;4.55;4.07;;;;;;;6.03;100.00;97428.44;4971436;28;20070;-48
2022/02/11 11:02:13;;;;;;;4.07;3.70;;;;;;;6.18;100.00;97427.47;4963706;28;20070;-47
2022/02/11 11:04:41;;;;;;;4.68;3.58;;;;;;;6.04;100.00;97432.72;4966207;28;20078;-52
2022/02/11 11:07:11;;;;;;;5.97;4.32;;;;;;;6.16;100.00;97434.59;4974940;28;20065;-53
2022/02/11 11:09:45;;;;;;;4.70;4.20;;;;;;;6.15;100.00;97439.91;4979394;28;20074;-52
2022/02/11 11:12:15;;;;;;;4.07;3.70;;;;;;;6.10;100.00;97440.22;4966429;28;20078;-50
2022/02/11 11:14:45;;;;;;;3.60;3.30;;;;;;;6.16;100.00;97428.53;4958462;28;20062;-47
2022/02/11 11:17:16;;;;;;;3.38;2.80;;;;;;;5.64;100.00;97434.22;4984891;28;20072;-47
2022/02/11 11:19:44;;;;;;;3.03;2.83;;;;;;;5.48;100.00;97435.13;4978414;28;20067;-60
2022/02/11 11:22:14;;;;;;;3.50;3.25;;;;;;;5.34;100.00;97432.47;4971796;28;21607;-51
2022/02/11 11:24:48;;;;;;;3.73;3.43;;;;;;;5.39;100.00;97447.88;4983974;28;20077;-50
2022/02/11 11:27:41;;;;;;;4.75;3.65;;;;;;;5.24;100.00;97415.63;4992151;28;20531;-45
2022/02/11 11:30:27;;;;;;;3.83;3.53;;;;;;;5.46;100.00;97425.66;4961469;28;20074;-50
2022/02/11 11:33:21;;;;;;;4.57;3.92;;;;;;;5.71;100.00;97428.56;4964355;28;20478;-48
2022/02/11 11:36:07;;;;;;;4.07;3.67;;;;;;;5.69;100.00;97433.00;4985370;28;20062;-59
2022/02/11 11:38:39;;;;;;;4.45;4.10;;;;;;;6.36;100.00;97429.91;4991837;28;20077;-51
2022/02/11 11:41:10;;;;;;;3.65;3.35;;;;;;;6.06;100.00;97425.63;4971028;28;20077;-52
2022/02/11 11:43:38;;;;;;;;;;;;;;;6.01;100.00;97426.81;4976088;28;20057;-48
2022/02/11 11:46:31;;;;;;;3.92;3.50;;;;;;;6.35;100.00;97418.59;4976819;28;19969;-51
2022/02/11 11:49:00;;;;;;;6.97;3.60;;;;;;;6.63;100.00;97417.69;4964643;28;20075;-54
2022/02/11 11:51:30;;;;;;;5.15;3.60;;;;;;;6.51;100.00;97413.25;4967098;28;20062;-51
2022/02/11 11:54:24;;;;;;;3.42;3.13;;;;;;;6.49;100.00;97407.25;4964305;28;20090;-55
2022/02/11 11:56:57;;;;;;;3.85;3.50;;;;;;;6.64;100.00;97414.16;4990603;28;21574;-48
2022/02/11 11:59:28;;;;;;;4.03;3.22;;;;;;;6.60;100.00;97412.66;4989081;28;20058;-55
2022/02/11 12:02:00;;;;;;;5.60;3.97;;;;;;;6.66;100.00;97404.41;4989325;28;20073;-51
2022/02/11 12:04:30;;;;;;;4.97;3.42;;;;;;;6.77;100.00;97416.84;4973128;28;20058;-47
2022/02/11 12:07:01;;;;;;;3.83;3.25;;;;;;;6.56;100.00;97415.56;4974543;28;20066;-50
2022/02/11 12:09:29;;;;;;;;;;;;;;;7.28;100.00;97422.28;4981813;28;20085;-52
2022/02/11 12:12:00;;;;;;;5.30;3.05;;;;;;;6.92;100.00;97428.16;4978495;28;19961;-53
2022/02/11 12:14:30;;;;;;;5.40;3.58;;;;;;;6.98;100.00;97440.84;4963742;28;20074;-52
2022/02/11 12:17:03;;;;;;;3.60;3.30;;;;;;;6.75;100.00;97436.25;4962073;28;20097;-48
2022/02/11 12:19:33;;;;;;;3.33;3.03;;;;;;;6.54;100.00;97433.19;4965915;28;20559;-46
2022/02/11 12:22:01;;;;;;;6.45;3.47;;;;;;;6.86;100.00;97433.78;4968254;28;20074;-51
2022/02/11 12:27:23;;;;;;;4.95;3.22;;;;;;;6.56;100.00;97442.63;4969495;28;20089;-47
2022/02/11 12:29:54;;;;;;;3.80;3.20;;;;;;;6.56;100.00;97439.16;4958899;28;20316;-47
2022/02/11 12:32:28;;;;;;;5.20;3.00;;;;;;;6.30;100.00;97440.78;4961833;28;20066;-52
2022/02/11 12:34:57;;;;;;;3.65;3.00;;;;;;;6.31;100.00;97438.06;4962558;28;20066;-48
2022/02/11 12:37:27;;;;;;;4.85;3.25;;;;;;;6.43;100.00;97452.16;4977500;28;20543;-50
2022/02/11 12:40:10;;;;;;;3.47;3.17;;;;;;;6.35;100.00;97446.56;4986397;28;20177;-45
2022/02/11 12:42:40;;;;;;;3.40;2.75;;;;;;;6.22;100.00;97456.09;4990001;28;20078;-49
2022/02/11 12:45:11;;;;;;;3.60;3.10;;;;;;;6.35;100.00;97449.19;4996644;28;20077;-51
2022/02/11 12:47:41;;;;;;;3.42;2.97;;;;;;;6.23;100.00;97452.53;4966332;28;20085;-50
2022/02/11 12:50:10;;;;;;;4.25;3.33;;;;;;;6.44;100.00;97450.41;4965286;28;20065;-52
2022/02/11 12:52:40;;;;;;;5.22;3.45;;;;;;;6.31;100.00;97448.53;4968145;28;20878;-47
2022/02/11 12:55:11;;;;;;;4.00;3.40;;;;;;;6.50;100.00;97457.88;4977992;28;20070;-52
2022/02/11 12:57:41;;;;;;;3.60;3.28;;;;;;;6.29;100.00;97449.56;4989450;28;20033;-55
2022/02/11 13:00:15;;;;;;;3.58;3.20;;;;;;;6.72;100.00;97445.13;4995705;28;20084;-52
2022/02/11 13:02:45;;;;;;;4.88;3.20;;;;;;;6.52;100.00;97450.78;4986461;28;20065;-48
2022/02/11 13:05:15;;;;;;;5.60;3.22;;;;;;;6.54;100.00;97449.75;4989259;28;20064;-48
2022/02/11 13:07:46;;;;;;;5.68;3.20;;;;;;;6.27;100.00;97457.53;4974602;28;20074;-48
2022/02/11 13:10:18;;;;;;;;;;;;;;;6.42;100.00;97455.72;4971506;28;20081;-50
2022/02/11 13:12:47;;;;;;;5.03;3.13;;;;;;;6.62;100.00;97451.88;4996543;28;20330;-51
2022/02/11 13:15:17;;;;;;;3.55;2.85;;;;;;;6.48;100.00;97460.59;4989937;28;20120;-57
2022/02/11 13:17:48;;;;;;;2.83;2.63;;;;;;;6.38;100.00;97467.34;4987729;28;20070;-56
2022/02/11 13:20:20;;;;;;;3.10;2.80;;;;;;;6.34;100.00;97465.84;4991015;28;20100;-49
2022/02/11 13:22:50;;;;;;;5.18;2.85;;;;;;;6.22;100.00;97471.81;4991602;28;20066;-51
2022/02/11 13:25:19;;;;;;;4.07;3.03;;;;;;;5.99;100.00;97460.97;4991163;28;20073;-49
2022/02/11 13:27:50;;;;;;;5.43;3.17;;;;;;;6.15;100.00;97474.81;4995057;28;20074;-55
2022/02/11 13:30:26;;;;;;;;;;;;;;;6.06;100.00;97478.00;4974142;28;20059;-60
2022/02/11 13:32:57;;;;;;;4.65;3.10;;;;;;;5.92;100.00;97477.94;4964555;28;20526;-52
2022/02/11 13:35:25;;;;;;;3.15;2.90;;;;;;;6.01;100.00;97481.81;4967255;28;20077;-52
2022/02/11 13:37:59;;;;;;;7.50;3.83;;;;;;;5.92;100.00;97477.94;4970434;28;20323;-51
2022/02/11 13:40:29;;;;;;;4.00;3.53;;;;;;;6.03;100.00;97488.66;4985993;28;20062;-54
2022/02/11 13:43:00;;;;;;;3.22;2.90;;;;;;;6.07;100.00;97477.06;4992403;28;20540;-54
2022/02/11 13:45:30;;;;;;;3.72;3.17;;;;;;;5.93;100.00;97482.28;4992981;28;20516;-52
2022/02/11 13:48:06;;;;;;;5.60;3.00;;;;;;;5.92;100.00;97481.44;4991737;28;20074;-52
2022/02/11 13:50:58;;;;;;;4.40;2.97;;;;;;;5.85;100.00;97480.09;4985843;28;20077;-51
2022/02/11 13:53:28;;;;;;;3.00;2.80;;;;;;;5.84;100.00;97472.31;4987170;28;20463;-49
2022/02/11 13:55:56;;;;;;;2.90;2.70;;;;;;;5.94;100.00;97481.34;4962273;28;20445;-50
2022/02/11 13:58:25;;;;;;;4.40;3.10;;;;;;;6.00;100.00;97493.22;4968924;28;20497;-48
2022/02/11 14:00:54;;;;;;;4.13;3.00;;;;;;;5.94;100.00;97491.81;4977269;28;20065;-52
2022/02/11 14:03:26;;;;;;;3.30;3.00;;;;;;;6.02;100.00;97497.44;4992650;28;20070;-55
2022/02/11 14:06:00;;;;;;;3.42;3.00;;;;;;;6.05;100.00;97485.94;4968946;28;20078;-52
2022/02/11 14:08:43;;;;;;;4.10;3.35;;;;;;;6.13;100.00;97497.63;4986312;28;20065;-52
2022/02/11 14:11:13;;;;;;;3.50;3.20;;;;;;;6.20;100.00;97500.75;4990313;28;20069;-50
2022/02/11 14:13:41;;;;;;;3.85;3.10;;;;;;;6.12;100.00;97505.56;4992464;28;20065;-49
2022/02/11 14:16:10;;;;;;;3.47;3.17;;;;;;;6.02;100.00;97513.16;4989413;28;20073;-54
2022/02/11 14:18:41;;;;;;;3.80;2.85;;;;;;;6.09;100.00;97517.09;4993309;28;20090;-51
2022/02/11 14:21:13;;;;;;;3.65;2.88;;;;;;;6.06;100.00;97522.50;4989767;28;20081;-52
2022/02/11 14:23:42;;;;;;;5.53;3.20;;;;;;;6.00;100.00;97522.03;4959693;28;20062;-56
2022/02/11 14:26:10;;;;;;;3.30;3.00;;;;;;;6.06;100.00;97516.44;4964683;28;20070;-52
2022/02/11 14:28:39;;;;;;;8.18;3.05;;;;;;;6.21;100.00;97519.91;4966907;28;20062;-49
2022/02/11 14:31:08;;;;;;;4.90;3.10;;;;;;;6.01;100.00;97539.41;4961992;28;20423;-54
2022/02/11 14:33:37;;;;;;;3.25;2.95;;;;;;;6.04;100.00;97536.63;4964976;28;20509;-53
2022/02/11 14:36:07;;;;;;;4.88;3.30;;;;;;;6.12;100.00;97544.84;4970057;28;20070;-53
2022/02/11 14:38:36;;;;;;;3.90;3.33;;;;;;;6.21;100.00;97528.59;4968984;28;20093;-51
2022/02/11 14:43:50;;;;;;;3.75;3.25;;;;;;;6.10;100.00;97529.25;4979961;28;20077;-56
2022/02/11 14:46:19;;;;;;;3.47;3.17;;;;;;;6.16;100.00;97535.91;4993982;28;20066;-57
2022/02/11 14:48:47;;;;;;;2.90;2.70;;;;;;;6.12;100.00;97535.22;4985200;28;20062;-56
2022/02/11 14:51:17;;;;;;;3.20;2.80;;;;;;;5.86;100.00;97541.97;4994079;28;20077;-57
2022/02/11 14:53:45;;;;;;;6.75;3.60;;;;;;;5.94;100.00;97546.78;4989310;28;20084;-54
2022/02/11 14:56:14;;;;;;;3.40;3.10;;;;;;;5.91;100.00;97546.94;4991901;28;20066;-52
2022/02/11 14:58:43;;;;;;;4.68;3.30;;;;;;;5.73;100.00;97543.59;4990490;28;20089;-57
2022/02/11 15:01:11;;;;;;;3.10;2.80;;;;;;;5.77;100.00;97537.25;4988707;28;20080;-55
2022/02/11 15:03:41;;;;;;;4.47;3.28;;;;;;;5.91;100.00;97549.53;4986869;28;20097;-54